sensor_id;sensor_type;location;lat;lon;timestamp;P1;durP1;ratioP1;P2;durP2;ratioP2
27025;SDS011;14565;48.626;8.978;2022-09-29T00:01:58;10.88;;;4.60;;
27025;SDS011;14565;48.626;8.978;2022-09-29T00:04:24;7.03;;;4.40;;
27025;SDS011;14565;48.626;8.978;2022-09-29T00:06:50;5.85;;;4.15;;
27025;SDS011;14565;48.626;8.978;2022-09-29T00:09:15;7.97;;;4.75;;
27025;SDS011;14565;48.626;8.978;2022-09-29T00:11:41;7.72;;;4.60;;
27025;SDS011;14565;48.626;8.978;2022-09-29T00:14:07;5.35;;;4.65;;
27025;SDS011;14565;48.626;8.978;2022-09-29T00:16:33;8.40;;;4.10;;
27025;SDS011;14565;48.626;8.978;2022-09-29T00:18:59;6.25;;;4.20;;
27025;SDS011;14565;48.626;8.978;2022-09-29T00:21:25;7.30;;;4.03;;
27025;SDS011;14565;48.626;8.978;2022-09-29T00:23:51;7.57;;;4.05;;
27025;SDS011;14565;48.626;8.978;2022-09-29T00:26:20;5.70;;;3.92;;
27025;SDS011;14565;48.626;8.978;2022-09-29T00:28:48;5.85;;;3.97;;
27025;SDS011;14565;48.626;8.978;2022-09-29T00:31:21;5.88;;;4.00;;
27025;SDS011;14565;48.626;8.978;2022-09-29T00:33:47;8.95;;;4.05;;
27025;SDS011;14565;48.626;8.978;2022-09-29T00:36:15;5.70;;;3.55;;
27025;SDS011;14565;48.626;8.978;2022-09-29T00:38:42;8.48;;;4.20;;
27025;SDS011;14565;48.626;8.978;2022-09-29T00:41:13;8.70;;;4.13;;
27025;SDS011;14565;48.626;8.978;2022-09-29T00:52:07;6.22;;;4.13;;
27025;SDS011;14565;48.626;8.978;2022-09-29T00:55:06;5.60;;;4.63;;
27025;SDS011;14565;48.626;8.978;2022-09-29T00:57:41;6.47;;;3.83;;
27025;SDS011;14565;48.626;8.978;2022-09-29T01:00:34;6.40;;;3.95;;
27025;SDS011;14565;48.626;8.978;2022-09-29T01:03:06;5.72;;;3.97;;
27025;SDS011;14565;48.626;8.978;2022-09-29T01:05:37;8.02;;;4.13;;
27025;SDS011;14565;48.626;8.978;2022-09-29T01:08:21;7.00;;;3.80;;
27025;SDS011;14565;48.626;8.978;2022-09-29T01:11:07;7.60;;;3.95;;
27025;SDS011;14565;48.626;8.978;2022-09-29T01:16:01;4.97;;;3.78;;
27025;SDS011;14565;48.626;8.978;2022-09-29T01:18:27;5.90;;;3.70;;
27025;SDS011;14565;48.626;8.978;2022-09-29T01:21:00;7.88;;;3.97;;
27025;SDS011;14565;48.626;8.978;2022-09-29T01:38:01;5.93;;;3.53;;
27025;SDS011;14565;48.626;8.978;2022-09-29T01:43:08;5.72;;;3.80;;
27025;SDS011;14565;48.626;8.978;2022-09-29T01:45:41;5.68;;;3.80;;
27025;SDS011;14565;48.626;8.978;2022-09-29T01:48:17;11.02;;;2.80;;
27025;SDS011;14565;48.626;8.978;2022-09-29T01:50:49;8.90;;;3.33;;
27025;SDS011;14565;48.626;8.978;2022-09-29T01:53:22;4.68;;;2.88;;
27025;SDS011;14565;48.626;8.978;2022-09-29T01:55:55;5.65;;;3.15;;
27025;SDS011;14565;48.626;8.978;2022-09-29T01:58:26;5.45;;;2.72;;
27025;SDS011;14565;48.626;8.978;2022-09-29T02:00:57;5.88;;;2.70;;
27025;SDS011;14565;48.626;8.978;2022-09-29T02:03:34;2.92;;;2.50;;
27025;SDS011;14565;48.626;8.978;2022-09-29T02:06:32;5.22;;;3.22;;
27025;SDS011;14565;48.626;8.978;2022-09-29T02:09:02;4.53;;;3.05;;
27025;SDS011;14565;48.626;8.978;2022-09-29T02:11:32;4.10;;;2.70;;
27025;SDS011;14565;48.626;8.978;2022-09-29T02:14:21;4.90;;;2.53;;
27025;SDS011;14565;48.626;8.978;2022-09-29T02:17:23;3.83;;;2.63;;
27025;SDS011;14565;48.626;8.978;2022-09-29T02:19:46;6.00;;;2.90;;
27025;SDS011;14565;48.626;8.978;2022-09-29T02:22:15;3.80;;;2.95;;
27025;SDS011;14565;48.626;8.978;2022-09-29T02:24:41;4.85;;;3.03;;
27025;SDS011;14565;48.626;8.978;2022-09-29T02:27:07;5.68;;;3.08;;
27025;SDS011;14565;48.626;8.978;2022-09-29T02:29:34;4.15;;;2.60;;
27025;SDS011;14565;48.626;8.978;2022-09-29T02:32:01;4.97;;;2.70;;
27025;SDS011;14565;48.626;8.978;2022-09-29T02:34:29;6.70;;;2.92;;
27025;SDS011;14565;48.626;8.978;2022-09-29T02:39:32;5.18;;;2.58;;
27025;SDS011;14565;48.626;8.978;2022-09-29T02:58:51;9.27;;;4.30;;
27025;SDS011;14565;48.626;8.978;2022-09-29T03:01:33;6.97;;;3.88;;
27025;SDS011;14565;48.626;8.978;2022-09-29T03:04:10;5.78;;;3.80;;
27025;SDS011;14565;48.626;8.978;2022-09-29T03:06:35;4.40;;;3.22;;
27025;SDS011;14565;48.626;8.978;2022-09-29T03:09:01;6.25;;;3.25;;
27025;SDS011;14565;48.626;8.978;2022-09-29T03:11:27;4.63;;;3.53;;
27025;SDS011;14565;48.626;8.978;2022-09-29T03:13:53;6.22;;;3.38;;
27025;SDS011;14565;48.626;8.978;2022-09-29T03:16:19;7.20;;;3.38;;
27025;SDS011;14565;48.626;8.978;2022-09-29T03:18:44;6.95;;;3.67;;
27025;SDS011;14565;48.626;8.978;2022-09-29T03:21:10;6.70;;;3.60;;
27025;SDS011;14565;48.626;8.978;2022-09-29T03:23:36;5.15;;;3.42;;
27025;SDS011;14565;48.626;8.978;2022-09-29T03:26:02;5.90;;;3.55;;
27025;SDS011;14565;48.626;8.978;2022-09-29T03:28:27;8.85;;;4.75;;
27025;SDS011;14565;48.626;8.978;2022-09-29T03:30:53;6.90;;;4.50;;
27025;SDS011;14565;48.626;8.978;2022-09-29T03:33:19;8.95;;;4.68;;
27025;SDS011;14565;48.626;8.978;2022-09-29T03:35:45;8.93;;;4.68;;
27025;SDS011;14565;48.626;8.978;2022-09-29T03:38:11;6.32;;;4.85;;
27025;SDS011;14565;48.626;8.978;2022-09-29T03:40:36;6.57;;;4.30;;
27025;SDS011;14565;48.626;8.978;2022-09-29T03:43:02;8.23;;;4.32;;
27025;SDS011;14565;48.626;8.978;2022-09-29T03:45:28;7.03;;;5.00;;
27025;SDS011;14565;48.626;8.978;2022-09-29T03:47:53;7.43;;;4.47;;
27025;SDS011;14565;48.626;8.978;2022-09-29T03:50:19;8.15;;;4.97;;
27025;SDS011;14565;48.626;8.978;2022-09-29T03:52:45;6.43;;;4.20;;
27025;SDS011;14565;48.626;8.978;2022-09-29T03:55:10;7.43;;;5.05;;
27025;SDS011;14565;48.626;8.978;2022-09-29T03:57:36;8.13;;;4.80;;
27025;SDS011;14565;48.626;8.978;2022-09-29T04:00:02;7.03;;;4.90;;
27025;SDS011;14565;48.626;8.978;2022-09-29T04:02:28;8.57;;;5.13;;
27025;SDS011;14565;48.626;8.978;2022-09-29T04:04:53;5.80;;;4.25;;
27025;SDS011;14565;48.626;8.978;2022-09-29T04:07:19;5.90;;;4.13;;
27025;SDS011;14565;48.626;8.978;2022-09-29T04:09:45;9.43;;;4.47;;
27025;SDS011;14565;48.626;8.978;2022-09-29T04:12:10;6.25;;;4.28;;
27025;SDS011;14565;48.626;8.978;2022-09-29T04:14:36;6.93;;;4.38;;
27025;SDS011;14565;48.626;8.978;2022-09-29T04:17:02;7.80;;;5.28;;
27025;SDS011;14565;48.626;8.978;2022-09-29T04:19:27;5.70;;;3.85;;
27025;SDS011;14565;48.626;8.978;2022-09-29T04:21:53;6.15;;;4.35;;
27025;SDS011;14565;48.626;8.978;2022-09-29T04:24:19;6.78;;;4.68;;
27025;SDS011;14565;48.626;8.978;2022-09-29T04:26:44;11.43;;;8.15;;
27025;SDS011;14565;48.626;8.978;2022-09-29T04:29:10;12.77;;;7.22;;
27025;SDS011;14565;48.626;8.978;2022-09-29T04:31:36;13.00;;;6.07;;
27025;SDS011;14565;48.626;8.978;2022-09-29T04:34:01;7.30;;;4.78;;
27025;SDS011;14565;48.626;8.978;2022-09-29T04:36:27;7.43;;;4.25;;
27025;SDS011;14565;48.626;8.978;2022-09-29T04:38:53;5.20;;;3.35;;
27025;SDS011;14565;48.626;8.978;2022-09-29T04:41:19;4.68;;;3.45;;
27025;SDS011;14565;48.626;8.978;2022-09-29T04:43:44;9.27;;;3.90;;
27025;SDS011;14565;48.626;8.978;2022-09-29T04:46:10;7.38;;;3.65;;
27025;SDS011;14565;48.626;8.978;2022-09-29T04:48:37;8.10;;;4.33;;
27025;SDS011;14565;48.626;8.978;2022-09-29T04:51:05;7.53;;;6.55;;
27025;SDS011;14565;48.626;8.978;2022-09-29T04:53:32;47.90;;;26.73;;
27025;SDS011;14565;48.626;8.978;2022-09-29T04:55:58;48.42;;;20.38;;
27025;SDS011;14565;48.626;8.978;2022-09-29T04:58:28;63.08;;;27.10;;
27025;SDS011;14565;48.626;8.978;2022-09-29T05:00:53;21.85;;;11.60;;
27025;SDS011;14565;48.626;8.978;2022-09-29T05:03:19;12.27;;;7.85;;
27025;SDS011;14565;48.626;8.978;2022-09-29T05:05:45;22.02;;;13.80;;
27025;SDS011;14565;48.626;8.978;2022-09-29T05:08:10;8.50;;;5.10;;
27025;SDS011;14565;48.626;8.978;2022-09-29T05:10:36;9.15;;;5.05;;
27025;SDS011;14565;48.626;8.978;2022-09-29T05:13:02;8.75;;;5.03;;
27025;SDS011;14565;48.626;8.978;2022-09-29T05:15:28;8.82;;;5.50;;
27025;SDS011;14565;48.626;8.978;2022-09-29T05:17:53;8.10;;;5.78;;
27025;SDS011;14565;48.626;8.978;2022-09-29T05:20:19;8.10;;;5.72;;
27025;SDS011;14565;48.626;8.978;2022-09-29T05:22:45;11.45;;;6.45;;
27025;SDS011;14565;48.626;8.978;2022-09-29T05:25:10;11.57;;;6.28;;
27025;SDS011;14565;48.626;8.978;2022-09-29T05:27:36;8.55;;;5.65;;
27025;SDS011;14565;48.626;8.978;2022-09-29T05:30:03;6.25;;;4.65;;
27025;SDS011;14565;48.626;8.978;2022-09-29T05:32:29;6.45;;;4.55;;
27025;SDS011;14565;48.626;8.978;2022-09-29T05:34:55;9.30;;;6.70;;
27025;SDS011;14565;48.626;8.978;2022-09-29T05:37:21;7.57;;;6.00;;
27025;SDS011;14565;48.626;8.978;2022-09-29T05:39:47;4.28;;;3.50;;
27025;SDS011;14565;48.626;8.978;2022-09-29T05:42:13;5.75;;;3.22;;
27025;SDS011;14565;48.626;8.978;2022-09-29T05:44:39;6.00;;;3.47;;
27025;SDS011;14565;48.626;8.978;2022-09-29T05:47:04;8.15;;;5.18;;
27025;SDS011;14565;48.626;8.978;2022-09-29T05:49:30;9.63;;;6.10;;
27025;SDS011;14565;48.626;8.978;2022-09-29T05:51:57;12.80;;;6.35;;
27025;SDS011;14565;48.626;8.978;2022-09-29T05:54:23;15.10;;;6.78;;
27025;SDS011;14565;48.626;8.978;2022-09-29T05:56:51;6.57;;;4.72;;
27025;SDS011;14565;48.626;8.978;2022-09-29T05:59:17;6.28;;;3.88;;
27025;SDS011;14565;48.626;8.978;2022-09-29T06:01:43;5.40;;;4.20;;
27025;SDS011;14565;48.626;8.978;2022-09-29T06:04:08;5.47;;;3.90;;
27025;SDS011;14565;48.626;8.978;2022-09-29T06:06:34;7.88;;;5.13;;
27025;SDS011;14565;48.626;8.978;2022-09-29T06:09:00;12.57;;;8.15;;
27025;SDS011;14565;48.626;8.978;2022-09-29T06:11:27;6.97;;;4.45;;
27025;SDS011;14565;48.626;8.978;2022-09-29T06:13:57;10.27;;;5.65;;
27025;SDS011;14565;48.626;8.978;2022-09-29T06:16:27;20.33;;;8.38;;
27025;SDS011;14565;48.626;8.978;2022-09-29T06:18:54;20.45;;;5.70;;
27025;SDS011;14565;48.626;8.978;2022-09-29T06:21:21;11.38;;;4.28;;
27025;SDS011;14565;48.626;8.978;2022-09-29T06:23:49;6.82;;;4.07;;
27025;SDS011;14565;48.626;8.978;2022-09-29T06:26:16;5.88;;;3.80;;
27025;SDS011;14565;48.626;8.978;2022-09-29T06:28:43;22.55;;;6.00;;
27025;SDS011;14565;48.626;8.978;2022-09-29T06:31:10;21.73;;;6.22;;
27025;SDS011;14565;48.626;8.978;2022-09-29T06:33:39;36.75;;;11.48;;
27025;SDS011;14565;48.626;8.978;2022-09-29T06:36:10;30.83;;;11.20;;
27025;SDS011;14565;48.626;8.978;2022-09-29T06:38:59;28.27;;;10.55;;
27025;SDS011;14565;48.626;8.978;2022-09-29T06:41:25;23.30;;;9.88;;
27025;SDS011;14565;48.626;8.978;2022-09-29T06:43:52;23.20;;;10.68;;
27025;SDS011;14565;48.626;8.978;2022-09-29T06:46:21;28.60;;;8.07;;
27025;SDS011;14565;48.626;8.978;2022-09-29T06:48:47;14.80;;;6.55;;
27025;SDS011;14565;48.626;8.978;2022-09-29T06:51:12;20.65;;;7.22;;
27025;SDS011;14565;48.626;8.978;2022-09-29T06:53:38;16.02;;;6.32;;
27025;SDS011;14565;48.626;8.978;2022-09-29T06:56:05;13.75;;;6.43;;
27025;SDS011;14565;48.626;8.978;2022-09-29T06:58:31;15.20;;;5.45;;
27025;SDS011;14565;48.626;8.978;2022-09-29T07:01:01;9.57;;;4.60;;
27025;SDS011;14565;48.626;8.978;2022-09-29T07:03:30;8.98;;;4.50;;
27025;SDS011;14565;48.626;8.978;2022-09-29T07:05:56;9.48;;;5.57;;
27025;SDS011;14565;48.626;8.978;2022-09-29T07:08:25;11.57;;;9.00;;
27025;SDS011;14565;48.626;8.978;2022-09-29T07:10:52;16.08;;;13.93;;
27025;SDS011;14565;48.626;8.978;2022-09-29T07:13:19;12.85;;;11.50;;
27025;SDS011;14565;48.626;8.978;2022-09-29T07:15:44;10.13;;;6.63;;
27025;SDS011;14565;48.626;8.978;2022-09-29T07:18:12;12.47;;;3.80;;
27025;SDS011;14565;48.626;8.978;2022-09-29T07:20:38;7.15;;;3.58;;
27025;SDS011;14565;48.626;8.978;2022-09-29T07:23:05;5.93;;;3.53;;
27025;SDS011;14565;48.626;8.978;2022-09-29T07:25:32;6.10;;;3.20;;
27025;SDS011;14565;48.626;8.978;2022-09-29T07:27:58;6.38;;;3.55;;
27025;SDS011;14565;48.626;8.978;2022-09-29T07:30:25;9.05;;;3.92;;
27025;SDS011;14565;48.626;8.978;2022-09-29T07:32:51;5.75;;;3.15;;
27025;SDS011;14565;48.626;8.978;2022-09-29T07:35:20;10.20;;;4.40;;
27025;SDS011;14565;48.626;8.978;2022-09-29T07:37:50;6.75;;;2.97;;
27025;SDS011;14565;48.626;8.978;2022-09-29T07:40:17;4.60;;;3.15;;
27025;SDS011;14565;48.626;8.978;2022-09-29T07:42:43;5.40;;;3.92;;
27025;SDS011;14565;48.626;8.978;2022-09-29T07:45:09;5.20;;;3.72;;
27025;SDS011;14565;48.626;8.978;2022-09-29T07:47:35;5.10;;;2.95;;
27025;SDS011;14565;48.626;8.978;2022-09-29T07:50:00;4.90;;;2.67;;
27025;SDS011;14565;48.626;8.978;2022-09-29T07:52:26;5.22;;;2.58;;
27025;SDS011;14565;48.626;8.978;2022-09-29T07:54:52;5.03;;;2.55;;
27025;SDS011;14565;48.626;8.978;2022-09-29T07:57:17;4.32;;;2.45;;
27025;SDS011;14565;48.626;8.978;2022-09-29T07:59:44;4.72;;;2.20;;
27025;SDS011;14565;48.626;8.978;2022-09-29T08:02:09;2.35;;;1.60;;
27025;SDS011;14565;48.626;8.978;2022-09-29T08:04:35;4.03;;;1.80;;
27025;SDS011;14565;48.626;8.978;2022-09-29T08:07:01;2.42;;;1.55;;
27025;SDS011;14565;48.626;8.978;2022-09-29T08:09:26;4.40;;;2.10;;
27025;SDS011;14565;48.626;8.978;2022-09-29T08:11:52;5.15;;;2.40;;
27025;SDS011;14565;48.626;8.978;2022-09-29T08:14:18;8.30;;;2.75;;
27025;SDS011;14565;48.626;8.978;2022-09-29T08:16:43;3.83;;;2.72;;
27025;SDS011;14565;48.626;8.978;2022-09-29T08:19:09;4.75;;;2.60;;
27025;SDS011;14565;48.626;8.978;2022-09-29T08:21:35;3.95;;;2.08;;
27025;SDS011;14565;48.626;8.978;2022-09-29T08:24:01;2.08;;;1.63;;
27025;SDS011;14565;48.626;8.978;2022-09-29T08:26:30;3.17;;;1.77;;
27025;SDS011;14565;48.626;8.978;2022-09-29T08:28:59;3.65;;;1.55;;
27025;SDS011;14565;48.626;8.978;2022-09-29T08:31:26;3.33;;;1.80;;
27025;SDS011;14565;48.626;8.978;2022-09-29T08:33:52;2.28;;;1.67;;
27025;SDS011;14565;48.626;8.978;2022-09-29T08:36:20;4.77;;;2.10;;
27025;SDS011;14565;48.626;8.978;2022-09-29T08:38:46;3.47;;;2.03;;
27025;SDS011;14565;48.626;8.978;2022-09-29T08:41:33;2.67;;;1.60;;
27025;SDS011;14565;48.626;8.978;2022-09-29T08:44:04;2.15;;;1.55;;
27025;SDS011;14565;48.626;8.978;2022-09-29T08:46:37;2.42;;;1.58;;
27025;SDS011;14565;48.626;8.978;2022-09-29T08:52:11;3.17;;;1.73;;
27025;SDS011;14565;48.626;8.978;2022-09-29T08:54:40;2.92;;;1.70;;
27025;SDS011;14565;48.626;8.978;2022-09-29T08:57:11;5.00;;;1.50;;
27025;SDS011;14565;48.626;8.978;2022-09-29T09:00:02;1.95;;;1.33;;
27025;SDS011;14565;48.626;8.978;2022-09-29T09:05:42;2.40;;;1.73;;
27025;SDS011;14565;48.626;8.978;2022-09-29T09:14:08;3.63;;;2.30;;
27025;SDS011;14565;48.626;8.978;2022-09-29T09:30:41;12.75;;;5.45;;
27025;SDS011;14565;48.626;8.978;2022-09-29T09:33:21;3.78;;;2.03;;
27025;SDS011;14565;48.626;8.978;2022-09-29T09:35:56;2.05;;;1.63;;
27025;SDS011;14565;48.626;8.978;2022-09-29T09:39:12;2.47;;;1.33;;
27025;SDS011;14565;48.626;8.978;2022-09-29T09:41:22;2.72;;;1.20;;
27025;SDS011;14565;48.626;8.978;2022-09-29T09:43:55;8.93;;;1.85;;
27025;SDS011;14565;48.626;8.978;2022-09-29T09:46:27;2.45;;;1.40;;
27025;SDS011;14565;48.626;8.978;2022-09-29T09:54:27;1.52;;;0.90;;
27025;SDS011;14565;48.626;8.978;2022-09-29T10:02:15;1.80;;;0.90;;
27025;SDS011;14565;48.626;8.978;2022-09-29T10:04:44;1.95;;;0.90;;
27025;SDS011;14565;48.626;8.978;2022-09-29T10:07:12;2.40;;;0.90;;
27025;SDS011;14565;48.626;8.978;2022-09-29T10:09:38;4.97;;;1.60;;
27025;SDS011;14565;48.626;8.978;2022-09-29T10:12:04;7.55;;;2.17;;
27025;SDS011;14565;48.626;8.978;2022-09-29T10:14:30;2.40;;;0.98;;
27025;SDS011;14565;48.626;8.978;2022-09-29T10:17:00;1.75;;;1.00;;
27025;SDS011;14565;48.626;8.978;2022-09-29T10:22:21;1.48;;;0.82;;
27025;SDS011;14565;48.626;8.978;2022-09-29T10:24:47;1.88;;;0.80;;
27025;SDS011;14565;48.626;8.978;2022-09-29T10:29:45;1.75;;;0.88;;
27025;SDS011;14565;48.626;8.978;2022-09-29T10:32:30;2.55;;;1.00;;
27025;SDS011;14565;48.626;8.978;2022-09-29T10:35:08;5.40;;;1.60;;
27025;SDS011;14565;48.626;8.978;2022-09-29T10:37:40;7.10;;;2.10;;
27025;SDS011;14565;48.626;8.978;2022-09-29T10:42:43;2.67;;;0.75;;
27025;SDS011;14565;48.626;8.978;2022-09-29T10:47:46;2.00;;;0.63;;
27025;SDS011;14565;48.626;8.978;2022-09-29T10:55:22;2.25;;;0.98;;
27025;SDS011;14565;48.626;8.978;2022-09-29T10:57:48;1.77;;;1.05;;
27025;SDS011;14565;48.626;8.978;2022-09-29T11:00:30;1.20;;;0.80;;
27025;SDS011;14565;48.626;8.978;2022-09-29T11:05:50;2.20;;;0.90;;
27025;SDS011;14565;48.626;8.978;2022-09-29T11:08:16;1.85;;;0.85;;
27025;SDS011;14565;48.626;8.978;2022-09-29T11:10:43;5.03;;;1.80;;
27025;SDS011;14565;48.626;8.978;2022-09-29T11:15:41;2.22;;;1.23;;
27025;SDS011;14565;48.626;8.978;2022-09-29T11:18:16;2.28;;;0.90;;
27025;SDS011;14565;48.626;8.978;2022-09-29T11:20:43;1.30;;;0.60;;
27025;SDS011;14565;48.626;8.978;2022-09-29T11:23:21;2.00;;;0.90;;
27025;SDS011;14565;48.626;8.978;2022-09-29T11:25:52;1.35;;;0.70;;
27025;SDS011;14565;48.626;8.978;2022-09-29T11:37:00;2.92;;;1.00;;
27025;SDS011;14565;48.626;8.978;2022-09-29T11:42:31;1.60;;;0.98;;
27025;SDS011;14565;48.626;8.978;2022-09-29T11:45:10;2.00;;;0.70;;
27025;SDS011;14565;48.626;8.978;2022-09-29T11:52:50;6.00;;;2.83;;
27025;SDS011;14565;48.626;8.978;2022-09-29T12:11:14;2.17;;;0.88;;
27025;SDS011;14565;48.626;8.978;2022-09-29T12:16:46;2.47;;;0.80;;
27025;SDS011;14565;48.626;8.978;2022-09-29T12:19:31;1.92;;;0.75;;
27025;SDS011;14565;48.626;8.978;2022-09-29T12:22:00;1.70;;;0.73;;
27025;SDS011;14565;48.626;8.978;2022-09-29T12:27:00;3.08;;;0.95;;
27025;SDS011;14565;48.626;8.978;2022-09-29T12:32:07;4.05;;;0.80;;
27025;SDS011;14565;48.626;8.978;2022-09-29T12:34:59;2.50;;;1.10;;
27025;SDS011;14565;48.626;8.978;2022-09-29T12:37:46;2.08;;;0.80;;
27025;SDS011;14565;48.626;8.978;2022-09-29T12:40:19;1.33;;;0.80;;
27025;SDS011;14565;48.626;8.978;2022-09-29T12:51:27;1.92;;;0.60;;
27025;SDS011;14565;48.626;8.978;2022-09-29T13:21:15;1.90;;;1.00;;
27025;SDS011;14565;48.626;8.978;2022-09-29T13:28:58;2.25;;;0.82;;
27025;SDS011;14565;48.626;8.978;2022-09-29T13:31:28;2.35;;;0.73;;
27025;SDS011;14565;48.626;8.978;2022-09-29T13:33:57;1.80;;;0.55;;
27025;SDS011;14565;48.626;8.978;2022-09-29T13:38:59;7.88;;;0.80;;
27025;SDS011;14565;48.626;8.978;2022-09-29T13:59:37;2.47;;;0.60;;
27025;SDS011;14565;48.626;8.978;2022-09-29T14:04:54;1.05;;;0.50;;
27025;SDS011;14565;48.626;8.978;2022-09-29T14:15:50;1.23;;;0.70;;
27025;SDS011;14565;48.626;8.978;2022-09-29T14:29:16;1.08;;;0.60;;
27025;SDS011;14565;48.626;8.978;2022-09-29T14:31:47;1.65;;;0.70;;
27025;SDS011;14565;48.626;8.978;2022-09-29T14:34:15;2.45;;;0.70;;
27025;SDS011;14565;48.626;8.978;2022-09-29T14:36:43;2.55;;;0.73;;
27025;SDS011;14565;48.626;8.978;2022-09-29T14:39:12;2.47;;;0.70;;
27025;SDS011;14565;48.626;8.978;2022-09-29T14:41:43;1.30;;;0.70;;
27025;SDS011;14565;48.626;8.978;2022-09-29T14:44:22;2.33;;;0.80;;
27025;SDS011;14565;48.626;8.978;2022-09-29T15:04:27;1.38;;;0.80;;
27025;SDS011;14565;48.626;8.978;2022-09-29T15:06:49;1.30;;;0.60;;
27025;SDS011;14565;48.626;8.978;2022-09-29T15:14:27;1.33;;;0.82;;
27025;SDS011;14565;48.626;8.978;2022-09-29T15:27:50;0.95;;;0.70;;
27025;SDS011;14565;48.626;8.978;2022-09-29T15:30:18;3.92;;;1.38;;
27025;SDS011;14565;48.626;8.978;2022-09-29T15:32:46;2.25;;;1.02;;
27025;SDS011;14565;48.626;8.978;2022-09-29T15:35:23;1.33;;;0.70;;
27025;SDS011;14565;48.626;8.978;2022-09-29T15:40:16;1.65;;;0.70;;
27025;SDS011;14565;48.626;8.978;2022-09-29T15:42:44;0.90;;;0.60;;
27025;SDS011;14565;48.626;8.978;2022-09-29T15:45:31;1.88;;;0.80;;
27025;SDS011;14565;48.626;8.978;2022-09-29T15:47:57;2.63;;;1.10;;
27025;SDS011;14565;48.626;8.978;2022-09-29T15:50:27;2.25;;;0.90;;
27025;SDS011;14565;48.626;8.978;2022-09-29T15:52:56;2.50;;;1.10;;
27025;SDS011;14565;48.626;8.978;2022-09-29T15:55:27;1.38;;;0.70;;
27025;SDS011;14565;48.626;8.978;2022-09-29T15:57:54;1.98;;;0.85;;
27025;SDS011;14565;48.626;8.978;2022-09-29T16:05:22;2.33;;;1.10;;
27025;SDS011;14565;48.626;8.978;2022-09-29T16:07:54;3.33;;;1.00;;
27025;SDS011;14565;48.626;8.978;2022-09-29T16:10:28;2.70;;;1.37;;
27025;SDS011;14565;48.626;8.978;2022-09-29T16:15:30;4.50;;;1.35;;
27025;SDS011;14565;48.626;8.978;2022-09-29T16:17:58;2.58;;;0.80;;
27025;SDS011;14565;48.626;8.978;2022-09-29T16:20:30;4.55;;;1.20;;
27025;SDS011;14565;48.626;8.978;2022-09-29T16:23:04;3.88;;;1.30;;
27025;SDS011;14565;48.626;8.978;2022-09-29T16:25:33;2.75;;;1.25;;
27025;SDS011;14565;48.626;8.978;2022-09-29T16:27:59;3.20;;;1.40;;
27025;SDS011;14565;48.626;8.978;2022-09-29T16:30:29;7.53;;;1.30;;
27025;SDS011;14565;48.626;8.978;2022-09-29T16:38:18;4.32;;;1.70;;
27025;SDS011;14565;48.626;8.978;2022-09-29T16:40:52;4.50;;;1.80;;
27025;SDS011;14565;48.626;8.978;2022-09-29T16:45:53;7.38;;;1.90;;
27025;SDS011;14565;48.626;8.978;2022-09-29T16:48:21;5.32;;;2.05;;
27025;SDS011;14565;48.626;8.978;2022-09-29T16:50:54;5.57;;;1.58;;
27025;SDS011;14565;48.626;8.978;2022-09-29T16:53:29;4.38;;;1.70;;
27025;SDS011;14565;48.626;8.978;2022-09-29T16:55:58;4.03;;;1.63;;
27025;SDS011;14565;48.626;8.978;2022-09-29T17:01:28;3.80;;;1.38;;
27025;SDS011;14565;48.626;8.978;2022-09-29T17:03:54;3.42;;;1.70;;
27025;SDS011;14565;48.626;8.978;2022-09-29T17:06:19;6.53;;;2.60;;
27025;SDS011;14565;48.626;8.978;2022-09-29T17:08:45;6.82;;;2.95;;
27025;SDS011;14565;48.626;8.978;2022-09-29T17:11:11;5.88;;;2.80;;
27025;SDS011;14565;48.626;8.978;2022-09-29T17:13:36;6.82;;;2.63;;
27025;SDS011;14565;48.626;8.978;2022-09-29T17:16:02;7.97;;;2.92;;
27025;SDS011;14565;48.626;8.978;2022-09-29T17:18:31;5.55;;;2.88;;
27025;SDS011;14565;48.626;8.978;2022-09-29T17:20:57;11.23;;;3.28;;
27025;SDS011;14565;48.626;8.978;2022-09-29T17:23:23;5.68;;;3.20;;
27025;SDS011;14565;48.626;8.978;2022-09-29T17:25:48;6.35;;;3.70;;
27025;SDS011;14565;48.626;8.978;2022-09-29T17:28:18;9.27;;;3.88;;
27025;SDS011;14565;48.626;8.978;2022-09-29T17:30:49;5.55;;;3.40;;
27025;SDS011;14565;48.626;8.978;2022-09-29T17:33:16;5.22;;;3.15;;
27025;SDS011;14565;48.626;8.978;2022-09-29T17:35:45;6.47;;;2.90;;
27025;SDS011;14565;48.626;8.978;2022-09-29T17:38:15;4.25;;;2.13;;
27025;SDS011;14565;48.626;8.978;2022-09-29T17:43:26;28.02;;;11.90;;
27025;SDS011;14565;48.626;8.978;2022-09-29T17:45:55;8.85;;;5.00;;
27025;SDS011;14565;48.626;8.978;2022-09-29T17:48:23;9.52;;;2.83;;
27025;SDS011;14565;48.626;8.978;2022-09-29T17:50:50;8.88;;;4.05;;
27025;SDS011;14565;48.626;8.978;2022-09-29T17:53:19;12.82;;;6.15;;
27025;SDS011;14565;48.626;8.978;2022-09-29T17:55:46;10.75;;;4.70;;
27025;SDS011;14565;48.626;8.978;2022-09-29T17:58:13;10.77;;;5.72;;
27025;SDS011;14565;48.626;8.978;2022-09-29T18:00:41;9.27;;;4.33;;
27025;SDS011;14565;48.626;8.978;2022-09-29T18:03:10;6.82;;;3.67;;
27025;SDS011;14565;48.626;8.978;2022-09-29T18:05:37;6.97;;;2.30;;
27025;SDS011;14565;48.626;8.978;2022-09-29T18:08:05;7.28;;;2.53;;
27025;SDS011;14565;48.626;8.978;2022-09-29T18:10:46;11.73;;;3.83;;
27025;SDS011;14565;48.626;8.978;2022-09-29T18:13:22;6.65;;;3.35;;
27025;SDS011;14565;48.626;8.978;2022-09-29T18:15:51;5.97;;;3.17;;
27025;SDS011;14565;48.626;8.978;2022-09-29T18:18:18;6.90;;;2.70;;
27025;SDS011;14565;48.626;8.978;2022-09-29T18:20:45;7.45;;;3.00;;
27025;SDS011;14565;48.626;8.978;2022-09-29T18:23:12;7.65;;;2.22;;
27025;SDS011;14565;48.626;8.978;2022-09-29T18:25:39;6.28;;;2.40;;
27025;SDS011;14565;48.626;8.978;2022-09-29T18:28:09;6.87;;;3.80;;
27025;SDS011;14565;48.626;8.978;2022-09-29T18:30:35;7.13;;;3.63;;
27025;SDS011;14565;48.626;8.978;2022-09-29T18:33:05;6.05;;;2.72;;
27025;SDS011;14565;48.626;8.978;2022-09-29T18:35:36;6.20;;;2.85;;
27025;SDS011;14565;48.626;8.978;2022-09-29T18:38:05;9.10;;;2.88;;
27025;SDS011;14565;48.626;8.978;2022-09-29T18:40:31;7.68;;;3.92;;
27025;SDS011;14565;48.626;8.978;2022-09-29T18:42:58;5.72;;;3.28;;
27025;SDS011;14565;48.626;8.978;2022-09-29T18:45:27;5.75;;;2.90;;
27025;SDS011;14565;48.626;8.978;2022-09-29T18:47:55;6.80;;;3.92;;
27025;SDS011;14565;48.626;8.978;2022-09-29T18:50:28;4.53;;;2.58;;
27025;SDS011;14565;48.626;8.978;2022-09-29T18:52:55;6.15;;;3.00;;
27025;SDS011;14565;48.626;8.978;2022-09-29T18:55:25;8.57;;;4.22;;
27025;SDS011;14565;48.626;8.978;2022-09-29T18:57:52;11.18;;;3.38;;
27025;SDS011;14565;48.626;8.978;2022-09-29T19:00:20;7.47;;;4.72;;
27025;SDS011;14565;48.626;8.978;2022-09-29T19:02:47;5.78;;;3.67;;
27025;SDS011;14565;48.626;8.978;2022-09-29T19:05:15;8.50;;;2.90;;
27025;SDS011;14565;48.626;8.978;2022-09-29T19:07:43;8.45;;;3.17;;
27025;SDS011;14565;48.626;8.978;2022-09-29T19:10:10;6.93;;;3.58;;
27025;SDS011;14565;48.626;8.978;2022-09-29T19:12:38;7.70;;;3.92;;
27025;SDS011;14565;48.626;8.978;2022-09-29T19:15:09;13.93;;;6.78;;
27025;SDS011;14565;48.626;8.978;2022-09-29T19:17:35;13.13;;;6.65;;
27025;SDS011;14565;48.626;8.978;2022-09-29T19:20:01;16.30;;;6.82;;
27025;SDS011;14565;48.626;8.978;2022-09-29T19:22:27;12.23;;;6.90;;
27025;SDS011;14565;48.626;8.978;2022-09-29T19:24:56;9.75;;;5.35;;
27025;SDS011;14565;48.626;8.978;2022-09-29T19:27:21;6.57;;;4.03;;
27025;SDS011;14565;48.626;8.978;2022-09-29T19:29:51;6.57;;;3.25;;
27025;SDS011;14565;48.626;8.978;2022-09-29T19:32:20;6.32;;;3.20;;
27025;SDS011;14565;48.626;8.978;2022-09-29T19:34:46;7.30;;;3.15;;
27025;SDS011;14565;48.626;8.978;2022-09-29T19:37:13;6.50;;;3.08;;
27025;SDS011;14565;48.626;8.978;2022-09-29T19:39:39;5.55;;;2.70;;
27025;SDS011;14565;48.626;8.978;2022-09-29T19:42:05;5.80;;;3.10;;
27025;SDS011;14565;48.626;8.978;2022-09-29T19:44:30;9.93;;;4.28;;